Time;durP1;ratioP1;P1;durP2;ratioP2;P2;SDS_P1;SDS_P2;PMS_P1;PMS_P2;Temp;Humidity;BMP_temperature;BMP_pressure;BME280_temperature;BME280_humidity;BME280_pressure;Samples;Min_cycle;Max_cycle;Signal;HPM_P1;HPM_P2
2022/07/25 00:01:19;;;;;;;12.27;10.55;;;20.70;71.00;;;;;;5055671;28;20261;-87
2022/07/25 00:03:46;;;;;;;12.35;10.10;;;20.60;72.10;;;;;;5064468;28;20265;-86
2022/07/25 00:06:19;;;;;;;15.48;10.70;;;20.60;73.00;;;;;;5054551;28;20199;-87
2022/07/25 00:08:48;;;;;;;11.30;10.02;;;20.60;73.80;;;;;;5060381;28;20220;-87
2022/07/25 00:11:15;;;;;;;12.55;11.10;;;20.60;75.60;;;;;;5068024;28;20266;-87
2022/07/25 00:13:43;;;;;;;11.10;10.00;;;20.60;75.60;;;;;;5065972;28;20292;-87
2022/07/25 00:16:13;;;;;;;11.15;9.40;;;20.50;75.50;;;;;;5062867;28;20228;-89
2022/07/25 00:18:41;;;;;;;13.43;11.98;;;20.50;75.40;;;;;;5059222;28;20257;-87
2022/07/25 00:21:07;;;;;;;12.75;11.55;;;20.50;75.80;;;;;;5068007;28;20217;-87
2022/07/25 00:23:34;;;;;;;12.20;11.00;;;20.40;75.80;;;;;;5066944;28;20204;-86
2022/07/25 00:26:04;;;;;;;11.98;10.77;;;20.40;75.70;;;;;;5064735;28;20550;-87
2022/07/25 00:28:32;;;;;;;13.00;11.73;;;20.40;75.90;;;;;;5064046;28;20197;-88
2022/07/25 00:31:13;;;;;;;13.70;11.05;;;20.40;76.40;;;;;;5065370;28;20296;-86
2022/07/25 00:33:44;;;;;;;11.25;10.07;;;20.30;76.90;;;;;;5065822;28;20261;-87
2022/07/25 00:36:10;;;;;;;12.00;10.90;;;20.30;77.20;;;;;;5060724;28;20225;-87
2022/07/25 00:38:37;;;;;;;11.48;10.27;;;20.20;78.00;;;;;;5058787;28;20237;-87
2022/07/25 00:41:06;;;;;;;13.20;10.73;;;20.20;78.30;;;;;;5059235;28;20206;-88
2022/07/25 00:43:33;;;;;;;12.63;11.25;;;20.10;78.80;;;;;;5060503;28;20959;-87
2022/07/25 00:46:00;;;;;;;12.88;11.63;;;20.10;79.40;;;;;;5062070;28;20205;-87
2022/07/25 00:48:28;;;;;;;11.82;10.63;;;20.10;80.20;;;;;;5064586;28;20285;-87
2022/07/25 00:50:55;;;;;;;12.05;10.85;;;20.00;79.80;;;;;;5066029;28;20285;-87
2022/07/25 00:53:22;;;;;;;11.13;10.10;;;20.00;80.80;;;;;;5057043;28;20200;-87
2022/07/25 00:55:49;;;;;;;11.93;10.75;;;19.90;80.80;;;;;;5059133;28;20248;-86
2022/07/25 00:58:18;;;;;;;12.27;11.07;;;19.80;80.70;;;;;;5066485;28;20211;-87
2022/07/25 01:00:45;;;;;;;11.88;10.68;;;19.80;80.70;;;;;;5056414;28;20196;-86
2022/07/25 01:03:12;;;;;;;12.23;11.02;;;19.80;81.60;;;;;;5047222;28;20205;-87
2022/07/25 01:05:39;;;;;;;12.43;11.23;;;19.80;80.70;;;;;;5066129;28;20213;-88
2022/07/25 01:08:08;;;;;;;14.85;11.32;;;19.70;80.80;;;;;;5062255;28;20205;-87
2022/07/25 01:10:35;;;;;;;12.30;11.10;;;19.80;80.70;;;;;;5063682;28;20200;-86
2022/07/25 01:13:02;;;;;;;12.07;10.88;;;19.70;81.30;;;;;;5057551;28;20225;-87
2022/07/25 01:15:33;;;;;;;12.40;11.30;;;19.70;82.00;;;;;;5061609;28;20350;-88
2022/07/25 01:18:00;;;;;;;12.50;11.25;;;19.70;82.30;;;;;;5069379;28;20280;-86
2022/07/25 01:20:34;;;;;;;12.52;11.32;;;19.70;82.00;;;;;;5058489;28;20200;-86
2022/07/25 01:23:14;;;;;;;12.10;10.90;;;19.70;82.80;;;;;;5054466;28;20244;-87
2022/07/25 01:25:40;;;;;;;13.00;11.55;;;19.70;82.60;;;;;;5058444;28;20216;-87
2022/07/25 01:28:07;;;;;;;13.07;11.82;;;19.60;83.00;;;;;;5065585;28;20202;-86
2022/07/25 01:30:34;;;;;;;12.93;11.70;;;19.60;83.90;;;;;;5070090;28;20293;-88
2022/07/25 01:33:02;;;;;;;13.38;12.05;;;19.60;83.90;;;;;;5064726;28;20253;-86
2022/07/25 01:35:29;;;;;;;12.73;11.35;;;19.50;84.10;;;;;;5062808;28;20221;-87
2022/07/25 01:37:57;;;;;;;12.80;11.60;;;19.50;84.60;;;;;;5064165;28;20261;-87
2022/07/25 01:40:24;;;;;;;12.93;11.15;;;19.50;84.90;;;;;;5060125;28;20266;-88
2022/07/25 01:42:55;;;;;;;12.45;11.38;;;19.50;85.20;;;;;;5064148;28;20277;-88
2022/07/25 01:45:22;;;;;;;12.82;11.73;;;19.40;85.50;;;;;;5062448;28;20273;-86
2022/07/25 01:47:50;;;;;;;13.15;11.95;;;19.40;85.70;;;;;;5060345;28;20210;-87
2022/07/25 01:50:16;;;;;;;13.13;11.88;;;19.40;85.70;;;;;;5062414;28;20204;-89
2022/07/25 01:52:44;;;;;;;14.27;12.98;;;19.40;86.00;;;;;;5054536;28;20209;-87
2022/07/25 01:55:12;;;;;;;13.55;12.25;;;19.40;86.60;;;;;;5059921;28;20222;-87
2022/07/25 01:57:40;;;;;;;13.82;12.50;;;19.30;86.80;;;;;;5057098;28;20277;-86
2022/07/25 02:00:10;;;;;;;13.73;12.38;;;19.30;87.20;;;;;;5054781;28;20230;-88
2022/07/25 02:02:37;;;;;;;12.98;11.63;;;19.30;87.30;;;;;;5064968;28;20289;-87
2022/07/25 02:05:04;;;;;;;14.27;12.02;;;19.30;87.50;;;;;;5061347;28;20206;-87
2022/07/25 02:07:31;;;;;;;14.18;12.77;;;19.30;87.70;;;;;;5055175;28;20217;-90
2022/07/25 02:09:58;;;;;;;13.90;12.55;;;19.30;87.60;;;;;;5050278;28;20198;-86
2022/07/25 02:12:26;;;;;;;13.93;12.60;;;19.40;86.60;;;;;;5052757;28;20204;-87
2022/07/25 02:14:59;;;;;;;14.05;12.60;;;19.30;86.70;;;;;;5032865;28;20202;-87
2022/07/25 02:17:26;;;;;;;13.88;12.43;;;19.30;87.20;;;;;;5048726;28;20194;-86
2022/07/25 02:19:56;;;;;;;14.40;12.90;;;19.20;87.50;;;;;;5056345;28;20281;-91
2022/07/25 02:22:22;;;;;;;13.70;12.50;;;19.20;87.50;;;;;;5062580;28;20259;-87
2022/07/25 02:24:49;;;;;;;13.20;12.00;;;19.10;87.70;;;;;;5057558;28;20292;-87
2022/07/25 02:27:25;;;;;;;14.88;13.48;;;19.10;88.50;;;;;;5054685;28;20206;-90
2022/07/25 02:30:14;;;;;;;13.82;12.55;;;18.90;88.70;;;;;;5057973;28;20281;-89
2022/07/25 02:32:41;;;;;;;14.02;12.52;;;19.00;89.20;;;;;;5053630;28;20257;-89
2022/07/25 02:35:09;;;;;;;14.23;12.93;;;18.90;89.80;;;;;;5059902;28;20221;-88
2022/07/25 02:37:36;;;;;;;14.20;12.80;;;18.90;89.50;;;;;;5060925;28;20198;-87
2022/07/25 02:40:03;;;;;;;14.52;13.13;;;18.90;89.80;;;;;;5062966;28;20466;-88
2022/07/25 02:42:30;;;;;;;14.25;12.93;;;18.90;89.90;;;;;;5060223;28;20261;-87
2022/07/25 02:44:57;;;;;;;14.23;12.93;;;18.90;89.80;;;;;;5061824;28;20213;-89
2022/07/25 02:47:25;;;;;;;13.63;12.32;;;18.90;90.00;;;;;;5057836;28;20221;-87
2022/07/25 02:49:52;;;;;;;14.50;13.10;;;18.80;90.10;;;;;;5061482;28;20196;-90
2022/07/25 02:52:19;;;;;;;14.38;13.07;;;18.80;90.50;;;;;;5056039;28;20191;-87
2022/07/25 02:54:46;;;;;;;14.30;13.00;;;18.80;90.40;;;;;;5054570;28;20193;-86
2022/07/25 02:57:13;;;;;;;14.15;12.85;;;18.80;90.40;;;;;;5056451;28;20222;-88
2022/07/25 02:59:40;;;;;;;15.70;13.05;;;18.80;90.50;;;;;;5057282;28;20259;-88
2022/07/25 03:02:08;;;;;;;13.95;12.32;;;18.80;90.50;;;;;;5053114;28;20267;-87
2022/07/25 03:04:39;;;;;;;14.73;12.65;;;18.80;90.40;;;;;;5055365;28;20194;-86
2022/07/25 03:07:06;;;;;;;14.68;12.82;;;18.80;90.70;;;;;;5057291;28;20197;-87
2022/07/25 03:09:33;;;;;;;14.27;12.95;;;18.70;91.00;;;;;;5064248;28;20266;-87
2022/07/25 03:12:00;;;;;;;14.02;12.50;;;18.70;90.80;;;;;;5053615;28;20266;-87
2022/07/25 03:14:27;;;;;;;15.45;13.20;;;18.70;90.90;;;;;;5051299;28;20296;-86
2022/07/25 03:16:53;;;;;;;14.63;13.23;;;18.70;90.80;;;;;;5063284;28;20224;-87
2022/07/25 03:19:20;;;;;;;14.38;12.95;;;18.70;90.80;;;;;;5056762;28;20270;-87
2022/07/25 03:21:48;;;;;;;14.38;12.98;;;18.70;91.20;;;;;;5047390;28;20210;-87
2022/07/25 03:24:17;;;;;;;13.50;12.10;;;18.70;90.90;;;;;;5059376;28;20194;-87
2022/07/25 03:26:43;;;;;;;14.00;12.60;;;18.60;91.10;;;;;;5063415;28;20214;-87
2022/07/25 03:29:11;;;;;;;14.15;12.75;;;18.70;90.90;;;;;;5061313;28;20202;-86
2022/07/25 03:31:38;;;;;;;13.82;12.43;;;18.60;91.00;;;;;;5063957;28;20226;-87
2022/07/25 03:34:05;;;;;;;14.02;12.73;;;18.60;91.20;;;;;;5063210;28;20638;-88
2022/07/25 03:36:38;;;;;;;13.60;12.25;;;18.60;91.20;;;;;;5058143;28;21915;-87
2022/07/25 03:39:06;;;;;;;14.20;12.80;;;18.60;91.20;;;;;;5064133;28;20262;-87
2022/07/25 03:41:33;;;;;;;14.38;12.98;;;18.60;91.20;;;;;;5059518;28;20213;-87
2022/07/25 03:44:00;;;;;;;14.25;12.95;;;18.60;91.20;;;;;;5065132;28;20216;-86
2022/07/25 03:46:32;;;;;;;14.35;12.90;;;18.60;91.20;;;;;;5060440;28;20352;-86
2022/07/25 03:49:02;;;;;;;14.55;13.05;;;18.50;91.30;;;;;;5064543;28;20233;-86
2022/07/25 03:51:29;;;;;;;15.30;13.65;;;18.50;91.60;;;;;;5065979;28;20202;-88
2022/07/25 03:54:01;;;;;;;14.77;13.27;;;18.50;91.70;;;;;;5062848;28;21028;-89
2022/07/25 03:56:30;;;;;;;14.73;13.30;;;18.50;91.40;;;;;;5066269;28;20610;-88
2022/07/25 03:58:57;;;;;;;14.65;13.15;;;18.50;91.40;;;;;;5065518;28;20194;-87
2022/07/25 04:01:26;;;;;;;14.65;13.15;;;18.60;91.20;;;;;;5061353;28;20305;-87
2022/07/25 04:03:53;;;;;;;13.60;12.20;;;18.70;90.90;;;;;;5060049;28;20202;-88
2022/07/25 04:06:19;;;;;;;14.50;13.10;;;18.80;90.70;;;;;;5059898;28;20297;-86
2022/07/25 04:08:48;;;;;;;14.35;12.85;;;18.80;90.40;;;;;;5065606;28;20221;-87
2022/07/25 04:11:14;;;;;;;14.02;12.73;;;18.80;90.30;;;;;;5063480;28;20662;-88
2022/07/25 04:13:43;;;;;;;14.38;12.98;;;18.80;90.30;;;;;;5063961;28;20198;-87
2022/07/25 04:16:10;;;;;;;14.45;12.95;;;18.80;90.30;;;;;;5061265;28;20313;-87
2022/07/25 04:18:38;;;;;;;13.75;12.43;;;18.80;90.20;;;;;;5067267;28;20213;-87
2022/07/25 04:21:08;;;;;;;13.73;12.40;;;18.90;89.90;;;;;;5053321;28;20285;-87
2022/07/25 04:23:38;;;;;;;15.02;13.40;;;18.90;89.60;;;;;;5063476;28;20194;-88
2022/07/25 04:26:05;;;;;;;14.77;13.38;;;18.90;89.70;;;;;;5054229;28;21549;-84
2022/07/25 04:28:34;;;;;;;14.13;12.68;;;18.80;90.20;;;;;;5055777;28;20549;-85
2022/07/25 04:31:03;;;;;;;14.13;12.73;;;18.90;90.50;;;;;;5060666;28;20281;-84
2022/07/25 04:33:38;;;;;;;14.18;12.68;;;19.30;90.50;;;;;;5054919;28;20224;-84
2022/07/25 04:36:06;;;;;;;14.38;12.73;;;19.40;87.50;;;;;;5055845;28;20284;-84
2022/07/25 04:38:33;;;;;;;14.00;12.50;;;19.90;88.00;;;;;;5049646;28;20198;-86
2022/07/25 04:41:00;;;;;;;14.65;12.95;;;20.00;83.70;;;;;;5055187;28;20205;-87
2022/07/25 04:43:32;;;;;;;13.60;11.38;;;19.80;83.10;;;;;;5054161;28;20201;-84
2022/07/25 04:46:03;;;;;;;13.70;12.27;;;19.90;85.40;;;;;;5053339;28;20212;-84
2022/07/25 04:48:30;;;;;;;13.27;12.00;;;20.10;82.90;;;;;;5048823;28;20578;-83
2022/07/25 04:50:57;;;;;;;13.15;11.85;;;20.20;81.00;;;;;;5052276;28;20289;-84
2022/07/25 04:53:32;;;;;;;13.63;12.32;;;20.10;80.90;;;;;;5046767;28;20261;-85
2022/07/25 04:56:31;;;;;;;13.02;11.82;;;20.20;81.80;;;;;;5046852;28;20673;-85
2022/07/25 04:58:58;;;;;;;13.55;12.15;;;20.10;80.90;;;;;;5060387;28;20213;-89
2022/07/25 05:01:26;;;;;;;12.85;11.65;;;20.20;81.00;;;;;;5056557;28;20207;-86
2022/07/25 05:03:53;;;;;;;13.98;12.65;;;20.20;81.00;;;;;;5047938;28;20307;-85
2022/07/25 05:06:20;;;;;;;13.20;11.90;;;20.30;81.00;;;;;;5057909;28;20588;-87
2022/07/25 05:08:47;;;;;;;13.20;11.98;;;20.20;81.00;;;;;;5048609;28;20198;-86
2022/07/25 05:11:14;;;;;;;13.10;11.88;;;20.10;80.90;;;;;;5051890;28;20204;-85
2022/07/25 05:13:40;;;;;;;12.98;11.57;;;20.10;80.90;;;;;;5052521;28;20213;-85
2022/07/25 05:16:08;;;;;;;13.35;11.98;;;20.10;80.90;;;;;;5043994;28;20211;-86
2022/07/25 05:18:36;;;;;;;13.48;12.07;;;20.10;80.90;;;;;;5049656;28;20293;-86
2022/07/25 05:21:03;;;;;;;13.82;12.27;;;20.20;81.00;;;;;;5051755;28;20202;-86
2022/07/25 05:23:29;;;;;;;14.85;13.35;;;20.20;81.00;;;;;;5051439;28;20228;-87
2022/07/25 05:25:56;;;;;;;14.57;13.18;;;20.20;81.00;;;;;;5043533;28;20190;-86
2022/07/25 05:28:23;;;;;;;13.32;12.13;;;20.30;81.00;;;;;;5045274;28;20579;-86
2022/07/25 05:30:50;;;;;;;14.80;13.32;;;20.40;81.10;;;;;;5050888;28;20209;-87
2022/07/25 05:33:17;;;;;;;17.73;13.30;;;20.50;80.20;;;;;;5028437;28;20677;-87
2022/07/25 05:35:45;;;;;;;12.70;11.50;;;20.60;79.50;;;;;;5042252;28;20649;-87
2022/07/25 05:38:12;;;;;;;12.75;11.55;;;20.90;79.00;;;;;;5053002;28;20202;-86
2022/07/25 05:40:39;;;;;;;13.10;11.80;;;21.40;76.50;;;;;;5051163;28;20197;-87
2022/07/25 05:43:05;;;;;;;13.45;11.75;;;21.70;72.40;;;;;;5053722;28;20446;-86
2022/07/25 05:45:32;;;;;;;12.88;11.57;;;21.80;71.20;;;;;;5053765;28;20577;-87
2022/07/25 05:47:59;;;;;;;13.20;11.88;;;21.90;67.70;;;;;;5055529;28;20206;-87
2022/07/25 05:50:26;;;;;;;12.80;11.50;;;22.20;66.60;;;;;;5052287;28;20580;-87
2022/07/25 05:52:54;;;;;;;13.18;11.77;;;22.20;64.30;;;;;;5049974;28;20209;-87
2022/07/25 05:55:21;;;;;;;13.00;11.77;;;22.20;64.10;;;;;;5050596;28;20296;-88
2022/07/25 05:57:48;;;;;;;12.88;11.57;;;22.20;64.30;;;;;;5048521;28;20222;-87
2022/07/25 06:00:15;;;;;;;15.48;11.80;;;22.40;63.30;;;;;;5035470;28;20206;-87
2022/07/25 06:02:44;;;;;;;12.05;10.93;;;22.90;58.50;;;;;;5045815;28;20205;-87
2022/07/25 06:05:11;;;;;;;12.23;11.02;;;23.00;58.60;;;;;;5052351;28;20281;-87
2022/07/25 06:07:38;;;;;;;12.93;11.63;;;23.00;58.60;;;;;;5048624;28;20198;-87
2022/07/25 06:10:07;;;;;;;12.63;11.43;;;22.90;58.50;;;;;;5052821;28;20212;-86
2022/07/25 06:12:34;;;;;;;13.30;12.07;;;22.80;58.50;;;;;;5057047;28;20731;-85
2022/07/25 06:15:01;;;;;;;12.50;11.30;;;22.70;58.40;;;;;;5061306;28;20210;-87
2022/07/25 06:17:28;;;;;;;13.15;11.80;;;22.70;59.40;;;;;;5048141;28;20222;-87
2022/07/25 06:19:55;;;;;;;12.77;11.40;;;22.60;60.00;;;;;;5053990;28;20659;-87
2022/07/25 06:22:21;;;;;;;13.25;11.75;;;22.60;60.00;;;;;;5047440;28;20683;-87
2022/07/25 06:24:48;;;;;;;12.95;11.30;;;22.60;60.20;;;;;;5050353;28;20666;-87
2022/07/25 06:27:16;;;;;;;12.40;10.93;;;22.60;59.40;;;;;;5048711;28;20222;-87
2022/07/25 06:29:43;;;;;;;12.73;11.63;;;22.70;59.90;;;;;;5048337;28;20580;-87
2022/07/25 06:32:10;;;;;;;12.73;11.63;;;22.70;59.50;;;;;;5051517;28;20717;-86
2022/07/25 06:34:38;;;;;;;12.93;10.93;;;22.80;58.40;;;;;;5051445;28;20205;-86
2022/07/25 06:37:05;;;;;;;12.48;11.20;;;22.90;58.50;;;;;;5052882;28;20226;-87
2022/07/25 06:39:32;;;;;;;12.57;11.48;;;23.00;58.60;;;;;;5051697;28;20215;-88
2022/07/25 06:41:59;;;;;;;11.57;10.55;;;23.10;60.00;;;;;;5051063;28;20210;-87
2022/07/25 06:44:28;;;;;;;11.68;10.63;;;23.20;58.80;;;;;;5047349;28;20305;-87
2022/07/25 06:46:54;;;;;;;11.30;10.20;;;23.30;58.90;;;;;;5040075;28;20209;-87
2022/07/25 06:49:21;;;;;;;11.25;10.02;;;23.40;57.60;;;;;;5043523;28;20206;-87
2022/07/25 06:51:48;;;;;;;11.20;10.15;;;23.50;55.60;;;;;;5052212;28;20205;-87
2022/07/25 06:54:17;;;;;;;12.10;10.90;;;23.60;56.00;;;;;;5051608;28;20202;-87
2022/07/25 06:56:44;;;;;;;11.48;10.38;;;23.70;55.60;;;;;;5049773;28;20237;-84
2022/07/25 06:59:11;;;;;;;12.00;10.75;;;23.90;57.30;;;;;;5044984;28;20205;-84
2022/07/25 07:01:39;;;;;;;11.27;10.27;;;24.00;54.20;;;;;;5043844;28;20203;-84
2022/07/25 07:04:06;;;;;;;13.23;10.45;;;24.10;54.10;;;;;;5045011;28;20277;-84
2022/07/25 07:06:35;;;;;;;11.90;10.73;;;24.20;53.50;;;;;;5049220;28;20282;-84
2022/07/25 07:09:02;;;;;;;12.25;9.82;;;24.30;51.30;;;;;;5052273;28;20198;-84
2022/07/25 07:11:29;;;;;;;11.18;10.07;;;24.40;49.40;;;;;;5051184;28;20203;-84
2022/07/25 07:13:55;;;;;;;11.48;10.38;;;24.50;49.50;;;;;;5049863;28;20187;-84
2022/07/25 07:16:22;;;;;;;11.55;10.25;;;24.60;48.00;;;;;;5039520;28;20666;-85
2022/07/25 07:18:50;;;;;;;11.32;10.32;;;24.70;47.80;;;;;;5037264;28;20209;-85
2022/07/25 07:21:18;;;;;;;12.45;11.05;;;24.90;47.30;;;;;;5054280;28;20194;-87
2022/07/25 07:23:44;;;;;;;12.05;11.02;;;24.90;45.80;;;;;;5047055;28;20575;-84
2022/07/25 07:26:11;;;;;;;11.57;10.38;;;25.10;46.20;;;;;;5049140;28;20232;-85
2022/07/25 07:28:38;;;;;;;12.05;10.93;;;25.20;46.80;;;;;;5054104;28;20202;-85
2022/07/25 07:31:16;;;;;;;11.73;10.50;;;25.20;47.20;;;;;;5053624;28;20204;-82
2022/07/25 07:33:43;;;;;;;11.48;10.38;;;25.30;45.70;;;;;;5048881;28;20221;-82
2022/07/25 07:36:11;;;;;;;12.07;10.90;;;25.50;44.00;;;;;;5058841;28;20206;-85
2022/07/25 07:38:38;;;;;;;12.73;11.50;;;25.50;43.90;;;;;;5058418;28;20530;-82
2022/07/25 07:41:05;;;;;;;13.02;10.90;;;25.60;43.10;;;;;;5052381;28;20217;-82
2022/07/25 07:43:32;;;;;;;12.43;11.13;;;25.70;42.60;;;;;;5050539;28;20214;-82
2022/07/25 07:46:00;;;;;;;11.70;10.60;;;25.70;41.80;;;;;;5055495;28;20698;-82
2022/07/25 07:48:26;;;;;;;12.20;11.10;;;25.80;41.60;;;;;;5049220;28;20576;-82
2022/07/25 07:50:53;;;;;;;12.20;10.93;;;25.90;41.60;;;;;;5055698;28;20645;-82
2022/07/25 07:53:21;;;;;;;12.40;11.10;;;26.00;42.20;;;;;;5056817;28;20202;-82
2022/07/25 07:55:53;;;;;;;11.48;10.27;;;26.20;41.20;;;;;;5053734;28;20234;-82
2022/07/25 07:58:21;;;;;;;11.85;10.75;;;26.30;40.00;;;;;;5050592;28;20233;-82
2022/07/25 08:00:50;;;;;;;11.93;10.73;;;26.40;41.30;;;;;;5054900;28;20206;-81
2022/07/25 08:03:18;;;;;;;11.10;9.98;;;26.60;39.30;;;;;;5054283;28;20198;-83
2022/07/25 08:05:46;;;;;;;12.27;10.43;;;26.60;40.90;;;;;;5057175;28;20679;-82
2022/07/25 08:08:15;;;;;;;12.63;10.02;;;26.80;37.40;;;;;;5054033;28;20206;-85
2022/07/25 08:10:45;;;;;;;11.93;10.73;;;26.90;37.50;;;;;;5056196;28;20214;-84
2022/07/25 08:13:14;;;;;;;12.10;10.98;;;27.10;37.60;;;;;;5053402;28;20209;-84
2022/07/25 08:15:41;;;;;;;13.38;10.15;;;27.10;35.00;;;;;;5052830;28;20564;-84
2022/07/25 08:18:08;;;;;;;11.73;10.63;;;27.20;37.60;;;;;;5054802;28;20233;-84
2022/07/25 08:20:35;;;;;;;10.63;9.55;;;27.40;35.90;;;;;;5057340;28;20756;-83
2022/07/25 08:23:02;;;;;;;11.70;10.38;;;27.60;34.30;;;;;;5056772;28;20687;-84
2022/07/25 08:25:29;;;;;;;10.90;10.00;;;27.70;33.90;;;;;;5055298;28;20220;-83
2022/07/25 08:27:58;;;;;;;10.75;9.65;;;27.80;32.10;;;;;;5057656;28;20210;-83
2022/07/25 08:30:25;;;;;;;10.90;9.82;;;28.00;30.70;;;;;;5056463;28;20209;-83
2022/07/25 08:32:55;;;;;;;10.43;9.38;;;28.00;29.10;;;;;;5057134;28;20229;-83
2022/07/25 08:35:28;;;;;;;11.88;10.63;;;28.10;27.90;;;;;;5056109;28;20244;-84
2022/07/25 08:37:55;;;;;;;11.40;10.23;;;28.30;28.40;;;;;;5051107;28;20243;-83
2022/07/25 08:40:23;;;;;;;15.55;14.05;;;28.50;27.70;;;;;;5055220;28;20197;-86
2022/07/25 08:42:51;;;;;;;10.00;9.23;;;28.70;26.80;;;;;;5065182;28;20210;-85
2022/07/25 08:45:19;;;;;;;11.25;10.23;;;29.00;25.80;;;;;;5070640;28;20215;-85
2022/07/25 08:47:48;;;;;;;11.35;9.93;;;29.20;23.50;;;;;;5044384;28;20205;-84
2022/07/25 08:50:16;;;;;;;11.00;9.38;;;29.60;23.30;;;;;;5055331;28;20295;-85
2022/07/25 08:52:44;;;;;;;11.82;9.20;;;30.40;21.30;;;;;;5057549;28;20206;-84
2022/07/25 08:55:18;;;;;;;10.43;9.50;;;31.60;18.90;;;;;;5061678;28;20201;-85
2022/07/25 08:57:47;;;;;;;11.05;10.07;;;33.30;16.60;;;;;;5057399;28;20221;-85
2022/07/25 09:00:17;;;;;;;10.90;9.90;;;35.10;13.40;;;;;;5059647;28;20232;-86
2022/07/25 09:02:51;;;;;;;10.32;9.43;;;36.40;11.10;;;;;;5062361;28;20208;-86
2022/07/25 09:05:19;;;;;;;11.00;10.10;;;37.30;10.10;;;;;;5050966;28;20208;-86
2022/07/25 09:07:46;;;;;;;11.40;10.50;;;38.40;8.10;;;;;;5059661;28;20669;-86
2022/07/25 09:10:15;;;;;;;11.30;10.40;;;38.80;7.20;;;;;;5060873;28;20202;-89
2022/07/25 09:12:50;;;;;;;12.05;11.05;;;39.50;5.50;;;;;;5054135;28;20721;-89
2022/07/25 09:15:23;;;;;;;11.57;10.73;;;39.90;4.90;;;;;;5045722;28;20197;-90
2022/07/25 09:17:53;;;;;;;11.70;10.88;;;40.00;5.10;;;;;;5048775;28;20225;-89
2022/07/25 09:20:21;;;;;;;11.63;10.82;;;39.50;4.30;;;;;;5054652;28;20197;-89
2022/07/25 09:22:48;;;;;;;12.38;11.48;;;39.10;5.50;;;;;;5053246;28;20304;-89
2022/07/25 09:25:28;;;;;;;12.55;11.52;;;38.60;5.90;;;;;;5054166;28;20687;-89
2022/07/25 09:27:56;;;;;;;12.60;11.60;;;39.00;6.20;;;;;;5048729;28;20284;-90
2022/07/25 09:30:23;;;;;;;11.77;10.77;;;39.40;5.30;;;;;;5053235;28;20204;-89
2022/07/25 09:33:01;;;;;;;12.00;11.00;;;39.70;4.60;;;;;;5053723;28;20227;-89
2022/07/25 09:35:32;;;;;;;12.10;11.20;;;39.70;4.20;;;;;;5048841;28;20262;-90
2022/07/25 09:38:11;;;;;;;11.73;10.90;;;39.70;4.00;;;;;;5042161;28;20225;-90
2022/07/25 09:40:38;;;;;;;11.75;10.77;;;40.30;3.30;;;;;;5053470;28;20660;-90
2022/07/25 09:43:05;;;;;;;11.40;10.60;;;40.80;2.50;;;;;;5052940;28;20632;-89
2022/07/25 09:45:32;;;;;;;11.50;10.57;;;40.70;2.50;;;;;;5050939;28;20704;-89
2022/07/25 09:48:02;;;;;;;12.55;11.45;;;40.40;3.20;;;;;;5051133;28;20221;-90
2022/07/25 09:50:31;;;;;;;12.35;11.55;;;40.50;2.30;;;;;;5051946;28;20676;-89
2022/07/25 09:53:01;;;;;;;11.48;10.63;;;40.60;2.40;;;;;;5047201;28;20194;-89
2022/07/25 09:55:28;;;;;;;11.10;10.30;;;40.10;2.10;;;;;;5048571;28;20606;-89
2022/07/25 09:57:55;;;;;;;11.07;10.38;;;40.20;2.20;;;;;;5046652;28;20230;-90
2022/07/25 10:00:28;;;;;;;12.77;11.88;;;39.70;2.50;;;;;;5047359;28;20208;-89
2022/07/25 10:03:26;;;;;;;12.40;11.60;;;40.10;2.10;;;;;;5039848;28;20201;-89
2022/07/25 10:06:11;;;;;;;11.95;10.95;;;39.70;1.90;;;;;;5047439;28;20201;-89
2022/07/25 10:08:44;;;;;;;12.75;11.65;;;39.60;1.90;;;;;;5053210;28;20201;-89
2022/07/25 10:11:32;;;;;;;12.75;11.77;;;39.50;1.80;;;;;;5046835;28;20217;-89
2022/07/25 10:14:10;;;;;;;12.02;10.95;;;39.30;1.70;;;;;;5043013;28;20200;-89
2022/07/25 10:16:46;;;;;;;12.18;11.27;;;39.80;2.00;;;;;;5053559;28;20257;-88
2022/07/25 10:19:15;;;;;;;11.13;10.32;;;40.10;2.90;;;;;;5050806;28;20235;-88
2022/07/25 10:21:42;;;;;;;12.70;11.52;;;39.80;2.00;;;;;;5049334;28;20715;-88
2022/07/25 10:24:10;;;;;;;12.00;11.20;;;39.40;3.60;;;;;;5055806;28;20671;-87
2022/07/25 10:26:38;;;;;;;11.30;10.60;;;39.30;1.70;;;;;;5055661;28;20194;-88
2022/07/25 10:29:08;;;;;;;11.10;10.00;;;39.60;1.90;;;;;;5054713;28;20197;-87
2022/07/25 10:31:38;;;;;;;10.00;9.10;;;39.30;1.70;;;;;;5053451;28;20251;-87
2022/07/25 10:34:06;;;;;;;11.02;10.20;;;39.10;1.60;;;;;;5057747;28;20211;-87
2022/07/25 10:36:46;;;;;;;10.43;9.70;;;39.40;1.80;;;;;;5056939;28;20205;-89
2022/07/25 10:39:17;;;;;;;9.90;8.95;;;39.60;1.90;;;;;;5058346;28;20225;-87
2022/07/25 10:41:50;;;;;;;10.07;9.25;;;39.70;1.90;;;;;;5059380;28;20212;-89
2022/07/25 10:44:17;;;;;;;9.88;8.98;;;39.30;2.60;;;;;;5060375;28;20201;-86
2022/07/25 10:46:46;;;;;;;9.63;9.02;;;39.70;1.90;;;;;;5057164;28;20211;-87
2022/07/25 10:49:19;;;;;;;9.10;8.50;;;39.40;1.80;;;;;;5056190;28;20229;-89
2022/07/25 10:51:56;;;;;;;10.20;9.50;;;39.00;3.60;;;;;;5051418;28;20289;-87
2022/07/25 10:54:23;;;;;;;10.32;9.38;;;39.40;4.20;;;;;;5056914;28;20272;-88
2022/07/25 10:56:55;;;;;;;9.63;8.82;;;39.60;1.90;;;;;;5057831;28;20205;-88
2022/07/25 10:59:27;;;;;;;8.70;8.10;;;39.80;2.00;;;;;;5054716;28;20294;-88
2022/07/25 11:01:55;;;;;;;9.15;8.32;;;39.80;2.00;;;;;;5057010;28;20201;-88
2022/07/25 11:04:22;;;;;;;10.43;9.43;;;39.40;1.80;;;;;;5054436;28;20296;-87
2022/07/25 11:06:48;;;;;;;9.32;8.63;;;39.10;2.30;;;;;;5057299;28;20201;-88
2022/07/25 11:09:19;;;;;;;11.30;9.75;;;39.20;2.60;;;;;;5058016;28;20211;-87
2022/07/25 11:11:53;;;;;;;10.50;9.65;;;38.90;3.00;;;;;;5061318;28;20675;-86
2022/07/25 11:14:22;;;;;;;9.80;8.90;;;38.60;3.80;;;;;;5051471;28;20206;-86
2022/07/25 11:16:51;;;;;;;8.70;7.95;;;38.20;4.10;;;;;;5050347;28;20205;-86
2022/07/25 11:19:20;;;;;;;8.75;7.95;;;37.80;4.50;;;;;;5053976;28;20218;-86
2022/07/25 11:21:48;;;;;;;8.48;7.50;;;37.20;3.50;;;;;;5053047;28;20211;-87
2022/07/25 11:24:16;;;;;;;7.80;6.53;;;36.60;6.70;;;;;;5045054;28;20217;-89
2022/07/25 11:26:51;;;;;;;8.18;6.03;;;36.40;4.50;;;;;;5051935;28;20208;-88
2022/07/25 11:29:20;;;;;;;6.57;6.07;;;36.30;4.20;;;;;;5048167;28;20207;-88
2022/07/25 11:31:55;;;;;;;7.97;6.05;;;36.10;4.30;;;;;;5048221;28;20221;-87
2022/07/25 11:34:24;;;;;;;7.05;6.45;;;36.00;3.70;;;;;;5051553;28;20209;-86
2022/07/25 11:36:54;;;;;;;6.55;5.95;;;35.90;3.40;;;;;;5054921;28;20212;-86
2022/07/25 11:39:23;;;;;;;7.05;5.80;;;35.80;5.60;;;;;;5054890;28;20217;-86
2022/07/25 11:41:59;;;;;;;7.03;5.60;;;35.70;3.50;;;;;;5053741;28;20241;-86
2022/07/25 11:44:31;;;;;;;8.90;5.80;;;35.70;3.40;;;;;;5054343;28;20193;-86
2022/07/25 11:46:58;;;;;;;6.30;5.78;;;35.60;5.90;;;;;;5055722;28;20201;-86
2022/07/25 11:49:25;;;;;;;7.78;6.18;;;35.50;3.20;;;;;;5055040;28;20206;-86
2022/07/25 11:51:52;;;;;;;8.88;5.30;;;35.30;2.90;;;;;;5055172;28;20201;-86
2022/07/25 11:54:19;;;;;;;6.65;5.68;;;35.10;3.90;;;;;;5048400;28;20208;-86
2022/07/25 11:56:47;;;;;;;5.82;5.32;;;35.20;3.50;;;;;;5054381;28;20206;-86
2022/07/25 11:59:15;;;;;;;5.65;5.25;;;35.30;3.90;;;;;;5055346;28;20238;-86
2022/07/25 12:01:43;;;;;;;6.35;5.60;;;35.30;3.70;;;;;;5052509;28;20228;-85
2022/07/25 12:04:13;;;;;;;5.95;5.45;;;35.20;2.20;;;;;;5056579;28;20673;-86
2022/07/25 12:06:40;;;;;;;6.20;5.60;;;35.00;3.70;;;;;;5054439;28;20206;-86
2022/07/25 12:09:14;;;;;;;6.05;5.55;;;35.00;4.00;;;;;;5056750;28;20675;-85
2022/07/25 12:11:44;;;;;;;5.75;5.00;;;34.90;4.00;;;;;;5056383;28;20220;-86
2022/07/25 12:14:13;;;;;;;6.20;5.30;;;35.10;3.90;;;;;;5054959;28;20272;-86
2022/07/25 12:16:40;;;;;;;6.07;5.57;;;35.00;4.10;;;;;;5060368;28;20292;-86
2022/07/25 12:19:10;;;;;;;6.50;5.78;;;35.10;4.60;;;;;;5059527;28;20225;-88
2022/07/25 12:21:37;;;;;;;7.65;6.15;;;35.20;2.80;;;;;;5040998;28;20198;-88
2022/07/25 12:24:05;;;;;;;7.82;6.00;;;35.20;4.10;;;;;;5058417;28;20197;-86
2022/07/25 12:26:32;;;;;;;9.18;6.13;;;35.10;3.90;;;;;;5054678;28;20193;-87
2022/07/25 12:28:59;;;;;;;8.95;5.93;;;35.10;3.70;;;;;;5059024;28;20200;-86
2022/07/25 12:31:28;;;;;;;9.40;6.30;;;35.00;4.20;;;;;;5057698;28;20593;-87
2022/07/25 12:33:55;;;;;;;10.20;5.88;;;34.90;4.50;;;;;;5061012;28;20262;-85
2022/07/25 12:36:22;;;;;;;9.48;6.20;;;34.90;4.70;;;;;;5060170;28;20218;-85
2022/07/25 12:38:49;;;;;;;6.78;6.13;;;34.70;4.40;;;;;;5057275;28;20224;-86
2022/07/25 12:41:16;;;;;;;7.97;5.88;;;34.80;5.10;;;;;;5053473;28;20206;-86